createdAt,value
2023-03-24T00:00:48.210Z,68.56
2023-03-24T00:03:17.875Z,68.65
2023-03-24T00:05:44.794Z,68.94
2023-03-24T00:08:11.296Z,69.67
2023-03-24T00:10:37.704Z,69.43
2023-03-24T00:13:05.020Z,70.01
2023-03-24T00:15:31.518Z,69.91
2023-03-24T00:17:58.195Z,70.06
2023-03-24T00:20:26.347Z,70.15
2023-03-24T00:22:58.540Z,70.38
2023-03-24T00:25:28.388Z,70.63
2023-03-24T00:27:57.243Z,70.78
2023-03-24T00:30:25.222Z,71.09
2023-03-24T00:32:52.422Z,71.15
2023-03-24T00:35:19.675Z,71.90
2023-03-24T00:37:46.355Z,72.12
2023-03-24T00:40:16.526Z,72.27
2023-03-24T00:42:45.805Z,72.38
2023-03-24T00:45:15.245Z,72.57
2023-03-24T00:47:44.615Z,72.67
2023-03-24T00:50:17.181Z,73.04
2023-03-24T00:52:48.011Z,73.33
2023-03-24T00:55:15.935Z,73.38
2023-03-24T00:57:50.383Z,73.84
2023-03-24T01:00:24.773Z,73.87
2023-03-24T01:02:53.745Z,74.36
2023-03-24T01:05:22.496Z,73.83
2023-03-24T01:07:52.042Z,74.29
2023-03-24T01:10:22.062Z,74.63
2023-03-24T01:12:48.868Z,74.32
2023-03-24T01:15:17.868Z,74.27
2023-03-24T01:17:44.287Z,74.33
2023-03-24T01:20:11.789Z,74.14
2023-03-24T01:22:40.537Z,74.01
2023-03-24T01:25:09.406Z,74.17
2023-03-24T01:27:37.542Z,74.57
2023-03-24T01:30:07.946Z,75.33
2023-03-24T01:32:34.517Z,75.07
2023-03-24T01:35:00.969Z,75.05
2023-03-24T01:37:27.394Z,75.03
2023-03-24T01:39:53.885Z,74.78
2023-03-24T01:42:23.659Z,74.81
2023-03-24T01:44:51.819Z,74.56
2023-03-24T01:47:18.413Z,74.61
2023-03-24T01:49:50.460Z,74.83
2023-03-24T01:52:24.906Z,75.18
2023-03-24T01:55:02.550Z,76.47
2023-03-24T01:57:47.960Z,77.42
2023-03-24T02:00:16.694Z,76.37
2023-03-24T02:02:46.867Z,76.77
2023-03-24T02:05:14.448Z,76.92
2023-03-24T02:07:50.465Z,76.85
2023-03-24T02:10:19.443Z,77.25
2023-03-24T02:12:46.554Z,77.72
2023-03-24T02:15:15.132Z,78.11
2023-03-24T02:17:57.127Z,79.41
2023-03-24T02:20:32.863Z,78.66
2023-03-24T02:22:59.226Z,78.16
2023-03-24T02:25:34.872Z,78.42
2023-03-24T02:28:32.155Z,80.32
2023-03-24T02:31:35.800Z,80.01
2023-03-24T02:34:20.787Z,79.21
2023-03-24T02:37:09.073Z,78.27
2023-03-24T02:40:02.384Z,78.60
2023-03-24T02:42:56.710Z,78.33
2023-03-24T02:45:53.204Z,79.30
2023-03-24T02:48:48.789Z,78.99
2023-03-24T02:51:27.177Z,80.38
2023-03-24T02:54:07.991Z,80.52
2023-03-24T02:57:10.334Z,81.67
2023-03-24T03:00:00.363Z,82.49
2023-03-24T03:02:34.624Z,82.16
2023-03-24T03:05:17.468Z,82.04
2023-03-24T03:07:46.721Z,82.11
2023-03-24T03:10:17.988Z,82.17
2023-03-24T03:12:49.503Z,82.50
2023-03-24T03:15:24.548Z,83.82
2023-03-24T03:18:19.539Z,84.40
2023-03-24T03:20:51.009Z,84.20
2023-03-24T03:23:23.526Z,85.23
2023-03-24T03:25:56.132Z,85.25
2023-03-24T03:28:25.736Z,85.29
2023-03-24T03:30:59.810Z,85.29
2023-03-24T03:33:49.792Z,85.56
2023-03-24T03:36:35.490Z,85.96
2023-03-24T03:39:10.779Z,86.31
2023-03-24T03:41:39.350Z,86.32
2023-03-24T03:44:06.456Z,86.32
2023-03-24T03:46:34.811Z,86.72
2023-03-24T03:49:01.306Z,86.44
2023-03-24T03:51:28.303Z,86.92
2023-03-24T03:54:01.518Z,87.52
2023-03-24T03:56:30.939Z,88.06
2023-03-24T03:58:58.185Z,88.19
2023-03-24T04:01:30.040Z,88.08
2023-03-24T04:04:17.959Z,89.11
2023-03-24T04:06:53.828Z,88.52
2023-03-24T04:09:40.971Z,89.38
2023-03-24T04:12:34.375Z,89.16
2023-03-24T04:15:15.796Z,89.10
2023-03-24T04:17:49.272Z,89.28
2023-03-24T04:20:32.543Z,89.73
2023-03-24T04:23:14.957Z,89.87
2023-03-24T04:25:56.872Z,89.64
2023-03-24T04:28:30.978Z,89.24
2023-03-24T04:31:18.917Z,89.21
2023-03-24T04:33:52.639Z,89.53
2023-03-24T04:36:29.153Z,89.49
2023-03-24T04:38:57.442Z,89.19
2023-03-24T04:41:28.158Z,89.39
2023-03-24T04:43:57.348Z,89.38
2023-03-24T04:46:24.624Z,89.58
2023-03-24T04:48:51.207Z,90.37
2023-03-24T04:51:21.132Z,90.51
2023-03-24T04:53:48.796Z,91.32
2023-03-24T04:56:53.476Z,91.46
2023-03-24T04:59:20.083Z,91.75
2023-03-24T05:01:49.683Z,92.00
2023-03-24T05:04:24.828Z,92.26
2023-03-24T05:06:51.634Z,92.35
2023-03-24T05:09:22.287Z,91.93
2023-03-24T05:11:49.541Z,91.08
2023-03-24T05:14:16.541Z,90.60
2023-03-24T05:16:43.060Z,90.20
2023-03-24T05:19:10.027Z,90.24
2023-03-24T05:21:36.771Z,90.44
2023-03-24T05:24:03.886Z,91.79
2023-03-24T05:26:33.162Z,92.72
2023-03-24T05:29:00.329Z,92.85
2023-03-24T05:31:27.133Z,91.80
2023-03-24T05:33:53.821Z,93.24
2023-03-24T05:36:20.372Z,93.18
2023-03-24T05:38:47.124Z,92.93
2023-03-24T05:41:13.538Z,91.47
2023-03-24T05:43:39.931Z,90.44
2023-03-24T05:46:06.734Z,90.16
2023-03-24T05:48:33.226Z,89.73
2023-03-24T05:50:59.614Z,90.33
2023-03-24T05:53:26.190Z,90.41
2023-03-24T05:55:53.695Z,89.40
2023-03-24T05:58:21.282Z,90.86
2023-03-24T06:00:47.839Z,90.58
2023-03-24T06:03:17.286Z,90.63
2023-03-24T06:05:45.731Z,91.26
2023-03-24T06:08:12.622Z,91.07
2023-03-24T06:10:39.147Z,90.96
2023-03-24T06:13:08.559Z,93.61
2023-03-24T06:15:35.670Z,93.79
2023-03-24T06:18:02.231Z,93.68
2023-03-24T06:20:29.079Z,93.92
2023-03-24T06:22:59.140Z,95.00
2023-03-24T06:25:27.713Z,95.25
2023-03-24T06:27:54.144Z,96.15
2023-03-24T06:30:20.891Z,96.13
2023-03-24T06:32:48.733Z,96.26
2023-03-24T06:35:16.094Z,96.38
2023-03-24T06:37:42.939Z,96.34
2023-03-24T06:40:15.280Z,96.99
2023-03-24T06:42:42.042Z,97.21
2023-03-24T06:45:09.536Z,98.13
2023-03-24T06:47:36.148Z,97.84
2023-03-24T06:50:03.444Z,98.53
2023-03-24T06:52:29.840Z,98.64
2023-03-24T06:54:57.533Z,99.53
2023-03-24T06:57:24.001Z,99.99
2023-03-24T06:59:50.858Z,100.00
2023-03-24T07:02:17.471Z,100.00
2023-03-24T07:04:45.792Z,100.00
2023-03-24T07:07:52.688Z,100.00
2023-03-24T07:09:59.060Z,100.00
2023-03-24T07:12:25.692Z,100.00
2023-03-24T07:14:52.185Z,100.00
2023-03-24T07:17:18.944Z,100.00
2023-03-24T07:19:45.845Z,100.00
2023-03-24T07:22:12.473Z,100.00
2023-03-24T07:24:38.864Z,100.00
2023-03-24T07:27:05.298Z,100.00
2023-03-24T07:29:31.745Z,100.00
2023-03-24T07:32:01.132Z,100.00
2023-03-24T07:34:28.734Z,100.00
2023-03-24T07:36:56.026Z,100.00
2023-03-24T07:39:22.458Z,100.00
2023-03-24T07:41:48.857Z,100.00
2023-03-24T07:44:15.767Z,100.00
2023-03-24T07:46:42.213Z,100.00
2023-03-24T07:49:18.732Z,100.00
2023-03-24T07:51:45.734Z,100.00
2023-03-24T07:54:12.156Z,100.00
2023-03-24T07:56:38.716Z,100.00
2023-03-24T07:59:05.184Z,100.00
2023-03-24T08:01:32.096Z,100.00
2023-03-24T08:03:58.657Z,100.00
2023-03-24T08:06:25.174Z,100.00
2023-03-24T08:08:51.583Z,100.00
2023-03-24T08:11:18.011Z,100.00
2023-03-24T08:13:44.426Z,100.00
2023-03-24T08:16:10.953Z,100.00
2023-03-24T08:18:37.415Z,100.00
2023-03-24T08:21:04.355Z,100.00
2023-03-24T08:23:30.918Z,100.00
2023-03-24T08:25:57.535Z,100.00
2023-03-24T08:28:23.964Z,100.00
2023-03-24T08:30:50.816Z,100.00
2023-03-24T08:33:17.774Z,100.00
2023-03-24T08:35:46.658Z,100.00
2023-03-24T08:38:15.676Z,100.00
2023-03-24T08:40:44.031Z,100.00
2023-03-24T08:43:15.311Z,100.00
2023-03-24T08:45:41.828Z,100.00
2023-03-24T08:48:09.147Z,100.00
2023-03-24T08:50:39.067Z,100.00
2023-03-24T08:53:05.720Z,100.00
2023-03-24T08:55:32.446Z,100.00
2023-03-24T08:57:58.916Z,100.00
2023-03-24T09:00:25.728Z,100.00
2023-03-24T09:02:54.162Z,100.00
2023-03-24T09:05:36.686Z,100.00
2023-03-24T09:08:08.235Z,100.00
2023-03-24T09:10:34.768Z,100.00
2023-03-24T09:13:01.176Z,100.00
2023-03-24T09:15:27.694Z,100.00
2023-03-24T09:17:54.208Z,100.00
2023-03-24T09:20:20.750Z,100.00
2023-03-24T09:22:47.413Z,100.00
2023-03-24T09:25:18.079Z,100.00
2023-03-24T09:27:44.776Z,100.00
2023-03-24T09:30:12.650Z,100.00
2023-03-24T09:32:39.125Z,100.00
2023-03-24T09:35:08.126Z,100.00
2023-03-24T09:37:36.250Z,100.00
2023-03-24T09:40:03.928Z,100.00
2023-03-24T09:42:35.825Z,100.00
2023-03-24T09:45:16.767Z,100.00
2023-03-24T09:47:49.100Z,100.00
2023-03-24T09:50:25.065Z,100.00
2023-03-24T09:53:07.114Z,100.00
2023-03-24T09:55:39.209Z,100.00
2023-03-24T09:58:08.894Z,100.00
2023-03-24T10:00:36.534Z,100.00
2023-03-24T10:03:12.253Z,100.00
2023-03-24T10:05:48.263Z,100.00
2023-03-24T10:08:26.479Z,100.00
2023-03-24T10:11:04.780Z,100.00
2023-03-24T10:13:42.372Z,100.00
2023-03-24T10:17:04.591Z,100.00
2023-03-24T10:19:36.877Z,100.00
2023-03-24T10:22:21.851Z,100.00
2023-03-24T10:25:08.581Z,100.00
2023-03-24T10:27:58.510Z,100.00
2023-03-24T10:30:36.989Z,100.00
2023-03-24T10:33:03.986Z,100.00
2023-03-24T10:35:36.538Z,100.00
2023-03-24T10:38:13.533Z,100.00
2023-03-24T10:40:40.744Z,100.00
2023-03-24T10:43:09.980Z,100.00
2023-03-24T10:45:39.705Z,100.00
2023-03-24T10:48:07.528Z,100.00
2023-03-24T10:50:35.918Z,100.00
2023-03-24T10:53:10.386Z,100.00
2023-03-24T10:55:39.694Z,100.00
2023-03-24T10:58:19.699Z,100.00
2023-03-24T11:00:47.523Z,100.00
2023-03-24T11:03:27.531Z,100.00
2023-03-24T11:06:00.146Z,100.00
2023-03-24T11:08:29.387Z,100.00
2023-03-24T11:10:55.815Z,100.00
2023-03-24T11:13:33.483Z,100.00
2023-03-24T11:16:30.184Z,100.00
2023-03-24T11:18:57.791Z,100.00
2023-03-24T11:21:24.848Z,100.00
2023-03-24T11:23:51.664Z,100.00
2023-03-24T11:26:22.690Z,100.00
2023-03-24T11:28:55.896Z,100.00
2023-03-24T11:31:30.619Z,100.00
2023-03-24T11:33:58.772Z,100.00
2023-03-24T11:36:31.161Z,100.00
2023-03-24T11:39:17.368Z,100.00
2023-03-24T11:41:52.051Z,100.00
2023-03-24T11:44:22.411Z,100.00
2023-03-24T11:47:08.736Z,100.00
2023-03-24T11:49:44.779Z,100.00
2023-03-24T11:52:24.129Z,100.00
2023-03-24T11:54:51.090Z,100.00
2023-03-24T11:57:40.852Z,100.00
2023-03-24T12:00:25.259Z,100.00
2023-03-24T12:03:04.332Z,100.00
2023-03-24T12:05:41.590Z,100.00
2023-03-24T12:08:17.661Z,100.00
2023-03-24T12:10:58.992Z,100.00
2023-03-24T12:13:43.985Z,100.00
2023-03-24T12:16:28.753Z,100.00
2023-03-24T12:19:36.395Z,97.08
2023-03-24T12:22:17.114Z,97.27
2023-03-24T12:24:50.048Z,97.31
2023-03-24T12:27:31.130Z,95.50
2023-03-24T12:30:02.227Z,96.60
2023-03-24T12:32:41.451Z,94.70
2023-03-24T12:35:54.998Z,93.12
2023-03-24T12:38:31.816Z,92.16
2023-03-24T12:41:13.238Z,90.69
2023-03-24T12:43:48.164Z,88.86
2023-03-24T12:46:46.642Z,89.07
2023-03-24T12:49:26.554Z,89.16
2023-03-24T12:52:17.551Z,89.25
2023-03-24T12:55:14.281Z,87.85
2023-03-24T12:57:57.809Z,87.73
2023-03-24T13:00:30.947Z,87.52
2023-03-24T13:03:21.776Z,86.70
2023-03-24T13:05:59.787Z,86.86
2023-03-24T13:08:32.142Z,87.17
2023-03-24T13:11:13.208Z,86.02
2023-03-24T13:13:44.743Z,84.29
2023-03-24T13:16:18.424Z,85.22
2023-03-24T13:18:50.319Z,86.50
2023-03-24T13:21:17.631Z,86.32
2023-03-24T13:23:47.262Z,86.44
2023-03-24T13:26:23.352Z,84.82
2023-03-24T13:29:32.943Z,84.84
2023-03-24T13:32:29.014Z,84.99
2023-03-24T13:35:19.676Z,85.19
2023-03-24T13:37:51.563Z,84.99
2023-03-24T13:40:25.390Z,85.32
2023-03-24T13:42:55.621Z,81.79
2023-03-24T13:45:51.960Z,80.87
2023-03-24T13:48:33.341Z,79.05
2023-03-24T13:51:25.833Z,79.19
2023-03-24T13:53:57.161Z,77.96
2023-03-24T13:56:37.693Z,76.07
2023-03-24T13:59:07.179Z,76.54
2023-03-24T14:01:38.750Z,76.21
2023-03-24T14:04:25.309Z,76.62
2023-03-24T14:06:57.760Z,75.75
2023-03-24T14:09:32.923Z,73.56
2023-03-24T14:11:59.637Z,72.87
2023-03-24T14:14:27.369Z,72.10
2023-03-24T14:17:05.828Z,71.26
2023-03-24T14:19:39.294Z,72.08
2023-03-24T14:22:36.876Z,70.66
2023-03-24T14:25:15.555Z,71.12
2023-03-24T14:27:44.267Z,71.12
2023-03-24T14:30:11.003Z,71.88
2023-03-24T14:32:40.961Z,70.98
2023-03-24T14:35:26.043Z,69.86
2023-03-24T14:37:57.448Z,70.52
2023-03-24T14:40:57.494Z,69.63
2023-03-24T14:43:29.263Z,70.04
2023-03-24T14:46:41.923Z,69.32
2023-03-24T14:49:29.466Z,69.74
2023-03-24T14:52:10.721Z,68.64
2023-03-24T14:54:43.999Z,68.17
2023-03-24T14:57:20.208Z,68.38
2023-03-24T14:59:58.544Z,68.46
2023-03-24T15:02:39.578Z,68.50
2023-03-24T15:05:23.482Z,68.90
2023-03-24T15:08:21.033Z,69.03
2023-03-24T15:11:08.193Z,68.70
2023-03-24T15:13:41.545Z,68.39
2023-03-24T15:16:17.562Z,68.33
2023-03-24T15:18:59.989Z,68.33
2023-03-24T15:22:05.827Z,67.76
2023-03-24T15:24:37.459Z,67.02
2023-03-24T15:27:06.991Z,66.81
2023-03-24T15:29:40.712Z,67.00
2023-03-24T15:32:15.396Z,67.71
2023-03-24T15:34:46.556Z,67.77
2023-03-24T15:37:41.753Z,67.75
2023-03-24T15:40:31.066Z,67.09
2023-03-24T15:43:00.300Z,67.43
2023-03-24T15:45:28.425Z,66.52
2023-03-24T15:47:56.567Z,66.25
2023-03-24T15:50:40.902Z,65.61
2023-03-24T15:53:07.247Z,66.54
2023-03-24T15:55:36.903Z,66.04
2023-03-24T15:58:26.726Z,69.39
2023-03-24T16:00:57.207Z,69.80
2023-03-24T16:03:27.724Z,71.08
2023-03-24T16:05:56.863Z,71.39
2023-03-24T16:08:27.545Z,72.46
2023-03-24T16:11:07.716Z,73.59
2023-03-24T16:13:34.686Z,73.58
2023-03-24T16:16:07.150Z,73.33
2023-03-24T16:18:36.519Z,72.81
2023-03-24T16:21:27.083Z,72.67
2023-03-24T16:23:55.655Z,72.72
2023-03-24T16:26:24.981Z,72.63
2023-03-24T16:28:52.821Z,72.32
2023-03-24T16:31:33.756Z,71.67
2023-03-24T16:34:00.275Z,71.51
2023-03-24T16:36:27.008Z,71.15
2023-03-24T16:38:55.665Z,72.59
2023-03-24T16:41:22.911Z,73.75
2023-03-24T16:43:49.420Z,73.92
2023-03-24T16:46:26.286Z,73.82
2023-03-24T16:48:53.736Z,74.66
2023-03-24T16:51:20.305Z,74.23
2023-03-24T16:53:46.944Z,74.78
2023-03-24T16:56:15.748Z,75.01
2023-03-24T16:58:42.197Z,75.27
2023-03-24T17:01:27.149Z,76.39
2023-03-24T17:03:56.180Z,76.29
2023-03-24T17:06:24.183Z,76.32
2023-03-24T17:08:51.137Z,76.55
2023-03-24T17:11:23.779Z,76.23
2023-03-24T17:13:51.451Z,75.98
2023-03-24T17:16:17.877Z,75.78
2023-03-24T17:18:44.291Z,75.67
2023-03-24T17:21:16.889Z,78.05
2023-03-24T17:23:46.766Z,79.77
2023-03-24T17:26:13.211Z,79.91
2023-03-24T17:28:40.208Z,81.91
2023-03-24T17:31:06.755Z,81.58
2023-03-24T17:33:33.630Z,81.14
2023-03-24T17:36:00.222Z,80.06
2023-03-24T17:38:27.021Z,79.56
2023-03-24T17:41:00.937Z,79.45
2023-03-24T17:43:27.650Z,77.89
2023-03-24T17:46:01.497Z,76.52
2023-03-24T17:48:27.977Z,75.59
2023-03-24T17:50:56.053Z,75.67
2023-03-24T17:53:26.360Z,76.21
2023-03-24T17:55:58.858Z,75.04
2023-03-24T17:58:30.219Z,74.45
2023-03-24T18:00:58.301Z,73.95
2023-03-24T18:03:26.189Z,74.00
2023-03-24T18:05:52.589Z,73.42
2023-03-24T18:08:19.082Z,72.54
2023-03-24T18:10:46.216Z,72.28
2023-03-24T18:13:15.128Z,71.95
2023-03-24T18:15:42.807Z,72.12
2023-03-24T18:18:09.711Z,71.78
2023-03-24T18:20:36.636Z,71.55
2023-03-24T18:23:03.078Z,71.50
2023-03-24T18:25:29.471Z,71.92
2023-03-24T18:27:56.188Z,72.65
2023-03-24T18:30:22.750Z,73.23
2023-03-24T18:32:49.458Z,73.89
2023-03-24T18:35:18.810Z,74.40
2023-03-24T18:37:45.455Z,74.64
2023-03-24T18:40:12.636Z,75.31
2023-03-24T18:42:39.075Z,75.28
2023-03-24T18:45:07.064Z,75.26
2023-03-24T18:47:33.855Z,74.89
2023-03-24T18:50:00.728Z,75.00
2023-03-24T18:52:27.359Z,74.45
2023-03-24T18:54:54.167Z,74.93
2023-03-24T18:57:21.304Z,74.89
2023-03-24T18:59:47.780Z,74.89
2023-03-24T19:02:15.482Z,75.19
2023-03-24T19:04:43.223Z,75.67
2023-03-24T19:07:14.162Z,75.21
2023-03-24T19:09:44.136Z,75.72
2023-03-24T19:12:10.534Z,75.40
2023-03-24T19:14:37.099Z,75.48
2023-03-24T19:17:03.532Z,75.51
2023-03-24T19:19:31.858Z,75.12
2023-03-24T19:21:58.758Z,75.07
2023-03-24T19:24:26.333Z,75.48
2023-03-24T19:26:53.950Z,76.62
2023-03-24T19:29:21.899Z,78.15
2023-03-24T19:31:49.618Z,78.73
2023-03-24T19:34:17.653Z,80.47
2023-03-24T19:36:45.959Z,81.16
2023-03-24T19:39:13.993Z,80.86
2023-03-24T19:41:41.094Z,80.48
2023-03-24T19:44:07.536Z,80.03
2023-03-24T19:46:34.033Z,80.10
2023-03-24T19:49:00.549Z,79.86
2023-03-24T19:51:26.928Z,79.30
2023-03-24T19:53:53.308Z,79.43
2023-03-24T19:56:20.741Z,79.39
2023-03-24T19:58:47.624Z,79.05
2023-03-24T20:01:14.133Z,79.26
2023-03-24T20:03:40.670Z,78.92
2023-03-24T20:06:10.816Z,79.51
2023-03-24T20:08:38.407Z,79.66
2023-03-24T20:11:10.575Z,79.67
2023-03-24T20:13:37.011Z,80.28
2023-03-24T20:16:03.630Z,80.47
2023-03-24T20:18:30.255Z,80.58
2023-03-24T20:20:57.626Z,80.90
2023-03-24T20:23:24.010Z,80.91
2023-03-24T20:25:50.767Z,81.29
2023-03-24T20:28:18.774Z,80.73
2023-03-24T20:30:46.021Z,80.76
2023-03-24T20:33:13.238Z,81.05
2023-03-24T20:35:39.841Z,80.87
2023-03-24T20:38:06.336Z,81.58
2023-03-24T20:40:32.739Z,81.85
2023-03-24T20:42:59.177Z,81.93
2023-03-24T20:45:26.642Z,81.87
2023-03-24T20:47:53.334Z,82.25
2023-03-24T20:50:20.037Z,82.19
2023-03-24T20:52:47.475Z,82.14
2023-03-24T20:55:14.545Z,82.80
2023-03-24T20:57:41.388Z,82.52
2023-03-24T21:00:13.277Z,82.38
2023-03-24T21:02:43.983Z,82.34
2023-03-24T21:05:10.872Z,82.17
2023-03-24T21:07:38.264Z,81.44
2023-03-24T21:10:06.452Z,81.99
2023-03-24T21:12:33.990Z,81.32
2023-03-24T21:15:00.488Z,81.40
2023-03-24T21:17:32.073Z,81.38
2023-03-24T21:20:13.577Z,81.78
2023-03-24T21:22:56.125Z,82.02
2023-03-24T21:25:28.970Z,81.95
2023-03-24T21:27:56.643Z,82.26
2023-03-24T21:30:25.509Z,82.47
2023-03-24T21:32:53.955Z,83.62
2023-03-24T21:35:21.869Z,83.01
2023-03-24T21:37:48.922Z,83.80
2023-03-24T21:40:18.556Z,84.00
2023-03-24T21:42:45.779Z,84.19
2023-03-24T21:45:23.173Z,84.52
2023-03-24T21:47:50.121Z,84.29
2023-03-24T21:50:22.709Z,84.51
2023-03-24T21:52:50.540Z,84.51
2023-03-24T21:55:17.126Z,84.45
2023-03-24T21:57:45.616Z,84.35
2023-03-24T22:00:15.086Z,84.42
2023-03-24T22:02:45.525Z,84.38
2023-03-24T22:05:13.945Z,83.98
2023-03-24T22:07:41.638Z,83.99
2023-03-24T22:10:09.794Z,83.91
2023-03-24T22:12:36.297Z,83.22
2023-03-24T22:15:02.774Z,82.93
2023-03-24T22:17:29.584Z,83.10
2023-03-24T22:19:55.970Z,83.18
2023-03-24T22:22:22.587Z,82.99
2023-03-24T22:24:48.952Z,82.89
2023-03-24T22:27:16.724Z,82.82
2023-03-24T22:29:43.098Z,82.21
2023-03-24T22:32:09.531Z,81.97
2023-03-24T22:34:36.078Z,81.51
2023-03-24T22:37:02.819Z,81.47
2023-03-24T22:39:29.218Z,81.31
2023-03-24T22:41:57.010Z,81.76
2023-03-24T22:44:23.385Z,81.37
2023-03-24T22:46:50.187Z,81.55
2023-03-24T22:49:16.712Z,81.30
2023-03-24T22:51:43.180Z,81.13
2023-03-24T22:54:09.667Z,80.93
2023-03-24T22:56:36.458Z,80.73
2023-03-24T22:59:03.094Z,80.67
2023-03-24T23:01:29.802Z,80.44
2023-03-24T23:03:56.259Z,80.42
2023-03-24T23:06:22.624Z,80.74
2023-03-24T23:08:50.156Z,80.29
2023-03-24T23:11:16.564Z,80.15
2023-03-24T23:13:42.965Z,80.04
2023-03-24T23:16:09.573Z,80.05
2023-03-24T23:18:37.096Z,79.63
2023-03-24T23:21:12.327Z,79.72
2023-03-24T23:23:41.373Z,79.93
2023-03-24T23:26:13.849Z,79.54
2023-03-24T23:28:54.209Z,79.28
2023-03-24T23:31:24.678Z,79.35
2023-03-24T23:33:54.350Z,79.12
2023-03-24T23:36:20.796Z,79.12
2023-03-24T23:38:50.689Z,78.97
2023-03-24T23:41:17.643Z,78.87
2023-03-24T23:43:47.892Z,78.53
2023-03-24T23:46:14.621Z,78.32
2023-03-24T23:48:41.224Z,78.53
2023-03-24T23:51:07.955Z,78.57
2023-03-24T23:53:36.226Z,79.03
2023-03-24T23:56:08.907Z,78.84
2023-03-24T23:58:37.873Z,79.11
